Terminal Aerodrome Forecast
Issued by NWS Topeka, KS

Home | Current Version | Previous Version | Text Only | Print | Product List | Glossary On
Versions: 1 2 3 4 5 6 7 8 9 10 11 12 13 14 15 16
000
FTUS43 KTOP 250300 AAA
TAFTOP
TAF AMD
KTOP 250305Z 2503/2524 13011KT P6SM SCT025 BKN035
     FM250500 17013G19KT 3SM -TSRA BR SCT025 OVC050CB
      TEMPO 2505/2507 VRB15G25KT 1SM TSRA OVC025CB
     FM250700 24010G17KT 3SM -RA OVC025
     FM251500 33014G23KT P6SM SCT020 BKN035=

USA.gov is the U.S. government's official web portal to all federal, state and local government web resources and services.